Архив погоды на Мудьюге Острове

Метеограмма Мудьюг Остров
Вторник, 14 Августа
Время местн. Темп Ветер Видим Явления Облачность нижн/средн/верх Атм. давл. Влжн Точка росы ВНГО R Сост. почвы Tg s
Напр Скр Прв ур.ст ур.м изм
21:00 +10.4° С 2 - 20 км - облачно с прояснениями 757 757 +1 83% +7.6° 1 км - - - -
18:00 +12.5° С-З 4 - 20 км - облачно 756 756 +0.7 65% +6.1° 1 км - - - -
15:00 +13.1° З,С-З 4 - 20 км - облачно с прояснениями 755 756 +1 62% +6° 1 км - - - -
12:00 +11.8° З,С-З 4 - 20 км - преимущественно облачно 754 755 +1.3 61% +4.6° 1 км - - - -
09:00 +11.4° С-З 2 - 20 км - преимущественно облачно 753 753 +1.4 67% +5.5° 1.5 км - - - -
06:00 +9.9° С 3 - 20 км - облачно 752 752 +1.2 79% +6.4° 1 км - Влажная (без луж) - -
03:00 +10° С 3 - 20 км - облачно 750 751 +1.4 80% +6.7° 1.5 км - - - -
00:00 +10.4° С-З 2 - 20 км - облачно 749 749 +1.4 81% +7.2° 1 км - - - -
Понедельник, 13 Августа
Время местн. Темп Ветер Видим Явления Облачность нижн/средн/верх Атм. давл. Влжн Точка росы ВНГО R Сост. почвы Tg s
Напр Скр Прв ур.ст ур.м изм
21:00 +11.4° С 4 - 20 км небо без изменений {дождь} облачно 748 748 +1.8 79% +7.8° 1 км - - - -
18:00 +13° С-З 7 11 20 км небо без изменений {дождь} облачно 746 746 +2.3 79% +9.4° 1.5 км - - - -
15:00 +12.9° С-З 12 17 4 км слабый непрерывный дождь {морось} облачно 743 744 +3.6 82% +9.9° 600 м - - - -
12:00 +12.1° С-З 7 12 20 км дождь облачно 740 740 +2.1 89% +10.4° 600 м - - - -
09:00 +14.4° Ю,Ю-В 6 - 4 км слабый непрерывный дождь облачно 738 738 -1.4 88% +12.4° 600 м - - - -
06:00 +14.7° Ю 5 - 4 км слабый непрерывный дождь облачно 739 739 -3.7 93% +13.5° 600 м - Влажная (без луж) - -
03:00 +14.1° С-В 6 - 4 км слабый дождь с перерывами облачно 743 743 -3.8 92% +12.8° 600 м - - - -
00:00 +14.8° С 2 - 4 км слабый непрерывный дождь облачно 747 747 -2.3 93% +13.7° 600 м - - - -
Воскресенье, 12 Августа
Время местн. Темп Ветер Видим Явления Облачность нижн/средн/верх Атм. давл. Влжн Точка росы ВНГО R Сост. почвы Tg s
Напр Скр Прв ур.ст ур.м изм
21:00 +16.2° Ю-В 3 - 4 км слабый непрерывный дождь {ливневые осадки} облачно 749 749 -1.7 85% +13.7° 600 м - - - -
18:00 +18.9° В 2 - 20 км осадки вдали станции облачно 751 751 -1.7 77% +14.8° 1 км - - - -
15:00 +18.7° В 2 - 20 км - облачно 752 753 -1 63% +11.6° 1 км - - - -
12:00 +17.6° З 2 - 20 км - облачно с прояснениями 753 754 -0.2 68% +11.6° - - - - -
09:00 +16.8° З 2 - 20 км - преимущественно облачно 754 754 -0.4 78% +12.9° - - - - -
06:00 +16° З 3 - 20 км - облачно с прояснениями 754 754 +0.1 82% +13° более 2.5 км 2 Влажная (без луж) +13° -
03:00 +16.1° З,С-З 4 - 20 км - переменная облачность 754 754 +0.2 81% +12.8° - - - - -
00:00 +18.5° З,Ю-З 6 - 20 км - переменная облачность 754 754 -0.3 79% +14.7° 1 км - - - -
Суббота, 11 Августа
Время местн. Темп Ветер Видим Явления Облачность нижн/средн/верх Атм. давл. Влжн Точка росы ВНГО R Сост. почвы Tg s
Напр Скр Прв ур.ст ур.м изм
21:00 +18.6° Ю 2 - 4 км дымка {ливневые осадки} облачно 754 754 -0.5 92% +17.2° 1 км - - - -
18:00 +20.4° В,Ю-В 1 - 20 км небо без изменений {ливневые осадки} облачно 755 755 -1.2 85% +17.7° 1 км - - - -